AirNav   Air Wisconsin Up To $57,000 Bonus
 
 1631 users online  

03MN Nauerth Land Ranch Airport
Lakefield, Minnesota, USA

GOING TO LAKEFIELD?


FAA INFORMATION EFFECTIVE 20 MAY 2021

Location

FAA Identifier: 03MN
Lat/Long: 43-37-30.8580N 095-13-29.0000W
43-37.514300N 095-13.483333W
43.6252383,-95.2247222
(estimated)
Elevation: 1435 ft. / 437 m (estimated)
Variation: 04E (1995)
From city: 3 miles SW of LAKEFIELD, MN
Time zone: UTC -5 (UTC -6 during Standard Time)
Zip code: 56150

Airport Operations

Airport use: Private use. Permission required prior to landing
Activation date: 02/1998
Control tower: no
ARTCC: MINNEAPOLIS CENTER
FSS: PRINCETON FLIGHT SERVICE STATION
Attendance: UNATNDD
Segmented circle: no

Airport Communications

WX AWOS-3 at MJQ (10 nm E): 118.1 (507-847-5810)
WX AWOS-3PT at OTG (15 nm W): 121.075 (507-376-9441)
WX AWOS-3 at MWM (18 nm N): 118.525 (507-831-1833)

Nearby radio navigation aids

VOR radial/distance  VOR name  Freq  Var
OTGr087/15.6WORTHINGTON VOR/DME110.6008E
SPWr353/27.8SPENCER VOR/DME110.0005E

 
NDB name  Hdg/Dist  Freq  Var  ID
WONDD085/10.427702EOT --- -
PUFF307/26.834501EPUF .--. ..- ..-.
EMMETSBURG320/38.741004EEGQ . --. --.-

Airport Services

Runway Information

Runway 17/35

Dimensions: 1940 x 75 ft. / 591 x 23 m
Surface: turf
RUNWAY 17  RUNWAY 35
Traffic pattern: leftleft
Obstructions: none150 ft. pline, 2890 ft. from runway

Airport Ownership and Management from official FAA records

Ownership: Privately-owned
Owner: JOHN NAUERTH III
RR 2 BOX 21
LAKEFIELD, MN 56150
Phone 507-662-5473
Manager: JOHN NAUERTH III
RR 2 BOX 21
LAKEFIELD, MN 56150
Phone 507-841-0085

Airport Operational Statistics

Aircraft based on the field: 1
Single engine airplanes: 1
    

Additional Remarks

FOR CD CTC MINNEAPOLIS ARTCC AT 651-463-5588.

Instrument Procedures

There are no published instrument procedures at 03MN.

Some nearby airports with instrument procedures:

KMJQ - Jackson Municipal Airport (10 nm E)
KOTG - Worthington Municipal Airport (15 nm W)
4D8 - Fuller Airport (18 nm S)
KMWM - Windom Municipal Airport (18 nm N)
KEST - Estherville Municipal Airport (25 nm SE)
 
Loc | Ops | Rwys | IFR | FBO | Links
Com | Nav | Svcs | Stats | Notes
Area around 03MN (Nauerth Land Ranch Airport)
 
Road maps at: MapQuest Bing Google
 
Aerial photo
No photo
 
Sectional chart

 
Airport distance calculator
Flying to Nauerth Land Ranch Airport? Find the distance to fly.

From to 03MN

Sunrise and sunset
Times for 14-Jun-2021
 Local
(UTC-5)
 Zulu
(UTC)
Morning civil twilight05:0410:04
Sunrise05:4010:40
Sunset21:0202:02
Evening civil twilight21:3802:38

Current date and time
Zulu (UTC)  14-Jun-2021 18:19:45
Local (UTC-5)  14-Jun-2021 13:19:45
 
METAR
KMJQ 
11nm E 
141755Z AUTO 00000KT 10SM CLR 27/05 A3012 RMK AO2 PWINO
KOTG 
15nm W 
141756Z AUTO 02005KT 10SM FEW110 27/08 A3013 RMK AO2 SLP198 T02670078 10272 20178 58007
KMWM 
17nm N 
141755Z AUTO 32005KT 10SM CLR 28/08 A3011 RMK AO2
TAF
NOTAMs
Click for the latest NOTAMs
NOTAMs are issued by the DoD/FAA and will open in a separate window not controlled by AirNav.

 

 
 

Would you like to see your business listed on this page?

 If your business provides an interesting product or service to pilots, flight crews, aircraft, or users of the Nauerth Land Ranch Airport, you should consider listing it here.  To start the listing process, click on the button below
 
Add a business
 

Other Pages about Nauerth Land Ranch Airport

Update a link
 
Copyright © AirNav, LLC. All rights reserved. Privacy Policy  Contact